Hlavní strana
METAR-TAF:

METAR-TAF

Letiště :

Piacenza, Itálie

zeměpisná šířka: 44-55N, zeměpisná délka: 009-44E, výška: 134 m

Aktuální stav počasí

Zpráva byla vytvořena před 33 minutami, v 12:55 UTC
Jihovýchodní vítr 2 kt
Teplota 26°C
Vlhkost vzduchu 65%
Tlak 1021 hPa
Viditelnost 10 km a více
Žádná oblačnost pod 1500 m, nevyskytují se cumulonimby.

METAR: LIMS 141255Z 13002KT CAVOK 26/19 Q1021 RMK FEW FEW200 VIS MIN 9999 WIND THR30 06003KT BLU

Čas: 15:28 (13:28 UTC)


TAF: chybějící

Stav a předpovědi počasí z více než 4 000 letišť (zprávy METAR a TAF).

Červené a žluté tečky na mapě představují dostupné meteorologické stanice.

Když kurzor umístíte na tečku, zobrazí se název stanice.

Pak kliknutím zobrazíte stav a předpověď počasí.

Chcete-li změnit mapu, kliknutím na zelené tlačítko se znaménkem +mapu přiblížíte, kliknutím na zelené tlačítko se znaménkem – mapu oddálíte a kliknutím na zelené šipky přejdete na sousední mapy.


METAR-TAF: